Portada
METAR-TAF:

METAR-TAF

Aeroports :

Aktobe, Kazakhstan

latitud: 50-17N, longitud: 057-09E, altitud: 227 m

Observació

L'informe es va fer fa 40 minuts, a les 14:30 UTC
Vent calma
Temperatura -14°C
Humitat 72%
Pressió 1037 hPa
Visibilitat 10 km o més
sense núvols per sota de 1500 mi sense presència de cumulonimbus.

METAR: UATT 221430Z 00000MPS CAVOK M14/M18 Q1037 R31/910255 NOSIG RMK QFE757/1010

Hora: 20:10 (15:10 UTC)

Pronòstic

L'informe es va fer fa 10 hores i 10 minuts, a les 05:00 UTC
Pronòstic vàlid del 22 a les 06 UTC al 23 a les 06 UTC
Vent 6 kt del Oest/Nord-Oest
Visibilitat 10 km o més
Núvols disperses a una alçada de 2000 ft
Temporalment
l' 23 a les 00 UTC al 23 a les 06 UTC
Visibilitat: 3100 m
Cel ennuvolat a una alçada de 1100 ft
boirina

TAF: UATT 220500Z 2206/2306 29003MPS 9999 SCT020 TXM09/2210Z TNM18/2301Z TEMPO 2300/2306 3100 BR BKN011

Observacions i pronòstics meteorològics de més de 4000 aeroports (METAR i TAF).

Les estacions disponibles són els punts grocs i vermells al mapa.

Posi el ratolí al punt desitjat per veure el nom de l'estació.

Feu clic per veure les observacions i els pronòstics meteorològics.

Per canviar el mapa: feu clic els botons verds amb una creu de color negre per apropar; al botó verd amb un guió per allunyar la imatge; o en les fletxes verdes per a mapes adjacents.


METAR-TAF: